Varennes, Canada
Current Conditions -  °F | °C
As of 6:00 PM on Monday 24 Nov 2014 (Local Time) from CYHU Reporting Station
Moderate Rain Moderate Rain  
Wind Chill: 61°   Ceiling: 6500
Heat Index: 61°   Visibility: 9mi
Dew Point: 54°   Wind: 10mph
Humidity: 77%   Direction: 190°S
Pressure: 29.29"   Gusts: 20mph
Location:  45.68°N, 73.43°W
Report Text: CYHU 242300Z AUTO 19009G17KT 9SM RA BKN065 BKN080 OVC091 16/12 A2929 RMK PRESRR PCPN 0.5MM PAST HR SLP917 DENSITY ALT 900FT
Loading
Personal Weather Stations






























Interactive Weather Map New forecast layout! Learn more

10-Day Weather Forecast

Advertisements
Track Severe Weather on mobile